Time;durP1;ratioP1;P1;durP2;ratioP2;P2;SDS_P1;SDS_P2;PMS_P1;PMS_P2;Temp;Humidity;BMP_temperature;BMP_pressure;BME280_temperature;BME280_humidity;BME280_pressure;Samples;Min_cycle;Max_cycle;Signal;HPM_P1;HPM_P2
2022/06/19 00:05:01;;;;;;;;;;;;;;;;;;12729511;27;19911;-80
2022/06/19 00:11:03;;;;;;;;;;;;;;;;;;12711883;28;19929;-80
2022/06/19 00:17:04;;;;;;;;;;;;;;;;;;12746964;28;19911;-79
2022/06/19 00:23:06;;;;;;;;;;;;;;;;;;12746523;28;19926;-79
2022/06/19 00:29:07;;;;;;;;;;;;;;;;;;12728797;28;20275;-79
2022/06/19 00:35:10;;;;;;;;;;;;;;;;;;12713174;28;20360;-79
2022/06/19 00:41:11;;;;;;;;;;;;;;;;;;12730750;27;19928;-80
2022/06/19 00:47:12;;;;;;;;;;;;;;;;;;12725811;27;19922;-79
2022/06/19 00:53:14;;;;;;;;;;;;;;;;;;12742141;27;20155;-79
2022/06/19 00:59:15;;;;;;;;;;;;;;;;;;12760522;27;19927;-79
2022/06/19 01:05:17;;;;;;;;;;;;;;;;;;12757905;27;19911;-78
2022/06/19 01:11:18;;;;;;;;;;;;;;;;;;12742569;27;19922;-79
2022/06/19 01:17:20;;;;;;;;;;;;;;;;;;12758749;27;19939;-78
2022/06/19 01:23:21;;;;;;;;;;;;;;;;;;12723330;27;19923;-78
2022/06/19 01:29:23;;;;;;;;;;;;;;;;;;12759257;27;19911;-79
2022/06/19 01:35:24;;;;;;;;;;;;;;;;;;12740189;27;19920;-78
2022/06/19 01:41:26;;;;;;;;;;;;;;;;;;12759275;27;20292;-78
2022/06/19 01:47:30;;;;;;;;;;;;;;;;;;12739090;27;19918;-77
2022/06/19 01:53:32;;;;;;;;;;;;;;;;;;12720436;27;19922;-78
2022/06/19 01:59:33;;;;;;;;;;;;;;;;;;12753270;27;19923;-80
2022/06/19 02:05:35;;;;;;;;;;;;;;;;;;12734611;27;19912;-80
2022/06/19 02:11:36;;;;;;;;;;;;;;;;;;12734013;27;20315;-80
2022/06/19 02:17:37;;;;;;;;;;;;;;;;;;12734270;27;19911;-80
2022/06/19 02:23:39;;;;;;;;;;;;;;;;;;12751662;27;19926;-80
2022/06/19 02:29:41;;;;;;;;;;;;;;;;;;12751364;27;19934;-79
2022/06/19 02:35:43;;;;;;;;;;;;;;;;;;12732663;27;20378;-80
2022/06/19 02:41:45;;;;;;;;;;;;;;;;;;12715358;27;20025;-80
2022/06/19 02:47:46;;;;;;;;;;;;;;;;;;12732695;27;19918;-79
2022/06/19 02:53:48;;;;;;;;;;;;;;;;;;12732288;27;19912;-80
2022/06/19 02:59:49;;;;;;;;;;;;;;;;;;12731128;27;19919;-80
2022/06/19 03:05:51;;;;;;;;;;;;;;;;;;12749185;27;19911;-78
2022/06/19 03:11:52;;;;;;;;;;;;;;;;;;12713284;27;19919;-78
2022/06/19 03:17:54;;;;;;;;;;;;;;;;;;12749246;27;19911;-79
2022/06/19 03:23:56;;;;;;;;;;;;;;;;;;12730581;27;19919;-79
2022/06/19 03:29:57;;;;;;;;;;;;;;;;;;12747847;27;19911;-78
2022/06/19 03:35:59;;;;;;;;;;;;;;;;;;12729789;27;19930;-79
2022/06/19 03:42:00;;;;;;;;;;;;;;;;;;12729059;27;20295;-78
2022/06/19 03:48:02;;;;;;;;;;;;;;;;;;12729609;27;19911;-78
2022/06/19 03:54:03;;;;;;;;;;;;;;;;;;12729548;27;19912;-79
2022/06/19 04:00:05;;;;;;;;;;;;;;;;;;12729144;27;19942;-78
2022/06/19 04:06:13;;;;;;;;;;;;;;;;;;12748367;27;19931;-78
2022/06/19 04:12:15;;;;;;;;;;;;;;;;;;12729493;28;19916;-78
2022/06/19 04:18:17;;;;;;;;;;;;;;;;;;12735500;27;19919;-79
2022/06/19 04:24:22;;;;;;;;;;;;;;;;;;12740400;27;19920;-78
2022/06/19 04:30:23;;;;;;;;;;;;;;;;;;12740619;27;20261;-79
2022/06/19 04:36:25;;;;;;;;;;;;;;;;;;12748061;27;20001;-77
2022/06/19 04:42:27;;;;;;;;;;;;;;;;;;12744607;27;20269;-79
2022/06/19 04:48:28;;;;;;;;;;;;;;;;;;12759408;27;19934;-79
2022/06/19 04:54:30;;;;;;;;;;;;;;;;;;12755347;27;19911;-78
2022/06/19 05:00:31;;;;;;;;;;;;;;;;;;12737297;27;19919;-79
2022/06/19 05:06:33;;;;;;;;;;;;;;;;;;12738301;27;20021;-79
2022/06/19 05:12:34;;;;;;;;;;;;;;;;;;12736585;27;19915;-79
2022/06/19 05:18:36;;;;;;;;;;;;;;;;;;12736377;27;20473;-79
2022/06/19 05:24:37;;;;;;;;;;;;;;;;;;12736144;27;20292;-79
2022/06/19 05:30:39;;;;;;;;;;;;;;;;;;12735545;27;19919;-78
2022/06/19 05:36:40;;;;;;;;;;;;;;;;;;12754376;27;19919;-79
2022/06/19 05:42:43;;;;;;;;;;;;;;;;;;12753335;27;19924;-79
2022/06/19 05:48:45;;;;;;;;;;;;;;;;;;12718014;27;19911;-79
2022/06/19 05:54:46;;;;;;;;;;;;;;;;;;12734605;27;19912;-79
2022/06/19 06:00:48;;;;;;;;;;;;;;;;;;12735214;27;19920;-78
2022/06/19 06:06:49;;;;;;;;;;;;;;;;;;12734721;27;19934;-79
2022/06/19 06:12:50;;;;;;;;;;;;;;;;;;12751938;27;19915;-79
2022/06/19 06:18:52;;;;;;;;;;;;;;;;;;12751641;27;19964;-79
2022/06/19 06:24:53;;;;;;;;;;;;;;;;;;12732918;27;19912;-79
2022/06/19 06:30:55;;;;;;;;;;;;;;;;;;12732403;27;19989;-79
2022/06/19 06:36:56;;;;;;;;;;;;;;;;;;12751106;27;20159;-78
2022/06/19 06:42:58;;;;;;;;;;;;;;;;;;12731286;27;20296;-78
2022/06/19 06:49:02;;;;;;;;;;;;;;;;;;12732133;27;20372;-79
2022/06/19 06:55:03;;;;;;;;;;;;;;;;;;12750924;27;19911;-78
2022/06/19 07:01:05;;;;;;;;;;;;;;;;;;12750338;27;19945;-79
2022/06/19 07:07:06;;;;;;;;;;;;;;;;;;12714738;27;19911;-77
2022/06/19 07:13:08;;;;;;;;;;;;;;;;;;12731628;27;19915;-78
2022/06/19 07:19:09;;;;;;;;;;;;;;;;;;12730466;27;19912;-78
2022/06/19 07:25:11;;;;;;;;;;;;;;;;;;12748500;27;19911;-78
2022/06/19 07:31:12;;;;;;;;;;;;;;;;;;12730104;27;19911;-79
2022/06/19 07:37:13;;;;;;;;;;;;;;;;;;12731100;27;20364;-79
2022/06/19 07:43:15;;;;;;;;;;;;;;;;;;12729461;27;19924;-79
2022/06/19 07:55:39;;;;;;;;;;;;;;;;;;12746832;27;19919;-79
2022/06/19 08:01:40;;;;;;;;;;;;;;;;;;12747231;27;19921;-78
2022/06/19 08:07:42;;;;;;;;;;;;;;;;;;12734482;27;19919;-78
2022/06/19 08:13:45;;;;;;;;;;;;;;;;;;12720904;28;19930;-77
2022/06/19 08:19:46;;;;;;;;;;;;;;;;;;12747121;28;19919;-78
2022/06/19 08:25:48;;;;;;;;;;;;;;;;;;12728544;28;19911;-78
2022/06/19 08:31:49;;;;;;;;;;;;;;;;;;12727788;28;19912;-79
2022/06/19 08:37:50;;;;;;;;;;;;;;;;;;12746711;28;19926;-79
2022/06/19 08:43:52;;;;;;;;;;;;;;;;;;12727812;28;19930;-79
2022/06/19 08:49:53;;;;;;;;;;;;;;;;;;12746244;28;19911;-79
2022/06/19 08:55:55;;;;;;;;;;;;;;;;;;12727493;28;20316;-79
2022/06/19 09:01:56;;;;;;;;;;;;;;;;;;12750818;27;19926;-84
2022/06/19 09:07:58;;;;;;;;;;;;;;;;;;12731533;27;19925;-81
2022/06/19 09:13:59;;;;;;;;;;;;;;;;;;12748237;27;19922;-80
2022/06/19 09:20:01;;;;;;;;;;;;;;;;;;12767264;27;19957;-80
2022/06/19 09:26:02;;;;;;;;;;;;;;;;;;12766528;27;19918;-81
2022/06/19 09:32:04;;;;;;;;;;;;;;;;;;12766069;27;19935;-84
2022/06/19 09:38:05;;;;;;;;;;;;;;;;;;12753099;27;19971;-86
2022/06/19 09:44:07;;;;;;;;;;;;;;;;;;12750230;27;19923;-85
2022/06/19 09:50:08;;;;;;;;;;;;;;;;;;12755000;27;19911;-84
2022/06/19 09:56:10;;;;;;;;;;;;;;;;;;12756045;27;20388;-85
2022/06/19 10:02:11;;;;;;;;;;;;;;;;;;12718381;27;19920;-82
2022/06/19 10:08:13;;;;;;;;;;;;;;;;;;12753402;27;19926;-81
2022/06/19 10:14:14;;;;;;;;;;;;;;;;;;12751836;27;19911;-81
2022/06/19 10:20:16;;;;;;;;;;;;;;;;;;12734287;27;19919;-80
2022/06/19 10:26:18;;;;;;;;;;;;;;;;;;12719313;27;19919;-81
2022/06/19 10:32:20;;;;;;;;;;;;;;;;;;12753088;27;19942;-81
2022/06/19 10:38:22;;;;;;;;;;;;;;;;;;12753368;27;19928;-81
2022/06/19 10:44:23;;;;;;;;;;;;;;;;;;12733703;27;20384;-81
2022/06/19 10:50:25;;;;;;;;;;;;;;;;;;12733484;27;19934;-82
2022/06/19 10:56:26;;;;;;;;;;;;;;;;;;12751312;27;19896;-81
2022/06/19 11:08:48;;;;;;;;;;;;;;;;;;12753926;27;19946;-81
2022/06/19 11:14:50;;;;;;;;;;;;;;;;;;12753125;27;19912;-81
2022/06/19 11:20:51;;;;;;;;;;;;;;;;;;12715641;27;19926;-81
2022/06/19 11:26:53;;;;;;;;;;;;;;;;;;12736499;27;19915;-80
2022/06/19 11:32:55;;;;;;;;;;;;;;;;;;12734129;27;20344;-80
2022/06/19 11:38:57;;;;;;;;;;;;;;;;;;12767934;27;19922;-79
2022/06/19 11:44:58;;;;;;;;;;;;;;;;;;12758522;27;19923;-81
2022/06/19 11:51:00;;;;;;;;;;;;;;;;;;12730268;27;19911;-80
2022/06/19 11:57:01;;;;;;;;;;;;;;;;;;12748260;27;19918;-80
2022/06/19 12:03:03;;;;;;;;;;;;;;;;;;12712849;27;20319;-80
2022/06/19 12:09:05;;;;;;;;;;;;;;;;;;12753277;27;19916;-80
2022/06/19 12:15:06;;;;;;;;;;;;;;;;;;12713307;28;19919;-81
2022/06/19 12:21:08;;;;;;;;;;;;;;;;;;12731070;28;19919;-81
2022/06/19 12:27:10;;;;;;;;;;;;;;;;;;12731787;28;19911;-81
2022/06/19 12:33:11;;;;;;;;;;;;;;;;;;12749331;28;20399;-81
2022/06/19 12:39:13;;;;;;;;;;;;;;;;;;12718584;27;20316;-80
2022/06/19 12:45:14;;;;;;;;;;;;;;;;;;12759185;27;19919;-81
2022/06/19 12:51:16;;;;;;;;;;;;;;;;;;12723902;27;19915;-81
2022/06/19 12:57:17;;;;;;;;;;;;;;;;;;12757858;27;20387;-80
2022/06/19 13:03:19;;;;;;;;;;;;;;;;;;12757319;27;20371;-81
2022/06/19 13:09:20;;;;;;;;;;;;;;;;;;12721118;27;19916;-80
2022/06/19 13:15:22;;;;;;;;;;;;;;;;;;12737174;27;19915;-81
2022/06/19 13:21:24;;;;;;;;;;;;;;;;;;12755626;27;19931;-81
2022/06/19 13:27:25;;;;;;;;;;;;;;;;;;12756647;27;19911;-79
2022/06/19 13:33:28;;;;;;;;;;;;;;;;;;12755222;27;19926;-81
2022/06/19 13:39:29;;;;;;;;;;;;;;;;;;12737502;27;20398;-81
2022/06/19 13:45:31;;;;;;;;;;;;;;;;;;12719432;27;20391;-80
2022/06/19 13:51:32;;;;;;;;;;;;;;;;;;12717866;27;19922;-80
2022/06/19 13:57:34;;;;;;;;;;;;;;;;;;12718751;27;19916;-81
2022/06/19 14:09:56;;;;;;;;;;;;;;;;;;12735121;27;19919;-80
2022/06/19 14:15:57;;;;;;;;;;;;;;;;;;12736764;27;19918;-80
2022/06/19 14:21:59;;;;;;;;;;;;;;;;;;12752683;27;19919;-81
2022/06/19 14:28:01;;;;;;;;;;;;;;;;;;12752251;27;20308;-81
2022/06/19 14:34:02;;;;;;;;;;;;;;;;;;12754464;27;19919;-81
2022/06/19 14:40:04;;;;;;;;;;;;;;;;;;12752522;27;20294;-81
2022/06/19 14:46:05;;;;;;;;;;;;;;;;;;12754525;27;19922;-81
2022/06/19 14:52:07;;;;;;;;;;;;;;;;;;12756041;27;19912;-80
2022/06/19 14:58:08;;;;;;;;;;;;;;;;;;12769593;27;19911;-79
2022/06/19 15:04:10;;;;;;;;;;;;;;;;;;12760211;27;19920;-81
2022/06/19 15:10:13;;;;;;;;;;;;;;;;;;12732144;27;19916;-80
2022/06/19 15:16:14;;;;;;;;;;;;;;;;;;12750155;27;19911;-80
2022/06/19 15:22:16;;;;;;;;;;;;;;;;;;12714818;27;19927;-81
2022/06/19 15:28:17;;;;;;;;;;;;;;;;;;12749129;27;19918;-80
2022/06/19 15:34:19;;;;;;;;;;;;;;;;;;12733310;27;19927;-80
2022/06/19 15:40:20;;;;;;;;;;;;;;;;;;12732210;27;19923;-80
2022/06/19 15:46:21;;;;;;;;;;;;;;;;;;12734796;27;19915;-80
2022/06/19 15:52:25;;;;;;;;;;;;;;;;;;12732484;27;22516;-82
2022/06/19 15:58:26;;;;;;;;;;;;;;;;;;12734705;27;19918;-81
2022/06/19 16:04:28;;;;;;;;;;;;;;;;;;12731997;27;19919;-81
2022/06/19 16:10:31;;;;;;;;;;;;;;;;;;12729635;27;20372;-81
2022/06/19 16:16:33;;;;;;;;;;;;;;;;;;12712238;28;19915;-80
2022/06/19 16:22:34;;;;;;;;;;;;;;;;;;12729338;28;20406;-81
2022/06/19 16:28:36;;;;;;;;;;;;;;;;;;12752703;28;19911;-81
2022/06/19 16:47:18;;;;;;;;;;;;;;;;;;12750317;28;19912;-80
2022/06/19 16:53:20;;;;;;;;;;;;;;;;;;12748289;28;20292;-80
2022/06/19 16:59:21;;;;;;;;;;;;;;;;;;12731956;28;19911;-81
2022/06/19 17:05:23;;;;;;;;;;;;;;;;;;12748940;28;20347;-80
2022/06/19 17:11:26;;;;;;;;;;;;;;;;;;12768173;28;19915;-81
2022/06/19 17:17:28;;;;;;;;;;;;;;;;;;12740641;28;19912;-81
2022/06/19 17:23:29;;;;;;;;;;;;;;;;;;12729630;27;19919;-80
2022/06/19 17:29:31;;;;;;;;;;;;;;;;;;12755739;27;19935;-79
2022/06/19 17:35:32;;;;;;;;;;;;;;;;;;12736952;27;19924;-80
2022/06/19 17:41:35;;;;;;;;;;;;;;;;;;12754403;27;19931;-81
2022/06/19 17:47:36;;;;;;;;;;;;;;;;;;12754382;27;19918;-81
2022/06/19 17:53:38;;;;;;;;;;;;;;;;;;12736142;27;19911;-81
2022/06/19 17:59:39;;;;;;;;;;;;;;;;;;12719573;27;19918;-81
2022/06/19 18:05:43;;;;;;;;;;;;;;;;;;12759874;27;20287;-81
2022/06/19 18:11:45;;;;;;;;;;;;;;;;;;12765756;27;19899;-80
2022/06/19 18:24:07;;;;;;;;;;;;;;;;;;12734683;27;19919;-81
2022/06/19 18:30:12;;;;;;;;;;;;;;;;;;12717943;27;19912;-81
2022/06/19 18:36:15;;;;;;;;;;;;;;;;;;12733862;27;19930;-80
2022/06/19 18:42:17;;;;;;;;;;;;;;;;;;12752414;27;19919;-81
2022/06/19 18:48:20;;;;;;;;;;;;;;;;;;12752073;27;19911;-80
2022/06/19 18:54:21;;;;;;;;;;;;;;;;;;12752086;27;19919;-81
2022/06/19 19:00:23;;;;;;;;;;;;;;;;;;12751580;27;19919;-81
2022/06/19 19:06:24;;;;;;;;;;;;;;;;;;12715811;27;19915;-81
2022/06/19 19:12:26;;;;;;;;;;;;;;;;;;12750475;27;20360;-81
2022/06/19 19:18:27;;;;;;;;;;;;;;;;;;12732552;27;20253;-81
2022/06/19 19:24:28;;;;;;;;;;;;;;;;;;12731943;27;19919;-81
2022/06/19 19:30:30;;;;;;;;;;;;;;;;;;12749390;27;19935;-81
2022/06/19 19:36:31;;;;;;;;;;;;;;;;;;12749709;27;19930;-81
2022/06/19 19:42:34;;;;;;;;;;;;;;;;;;12748866;27;19930;-80
2022/06/19 19:48:36;;;;;;;;;;;;;;;;;;12751054;27;19911;-80
2022/06/19 19:54:37;;;;;;;;;;;;;;;;;;12731034;27;19911;-81
2022/06/19 20:00:40;;;;;;;;;;;;;;;;;;12748961;27;20008;-81
2022/06/19 20:13:02;;;;;;;;;;;;;;;;;;12750144;27;20364;-80
2022/06/19 20:19:04;;;;;;;;;;;;;;;;;;12731987;28;19916;-81
2022/06/19 20:25:05;;;;;;;;;;;;;;;;;;12749211;28;19920;-81
2022/06/19 20:31:07;;;;;;;;;;;;;;;;;;12731297;28;20284;-80
2022/06/19 20:37:08;;;;;;;;;;;;;;;;;;12732264;28;19924;-80
2022/06/19 20:43:09;;;;;;;;;;;;;;;;;;12731412;28;19919;-80
2022/06/19 20:49:11;;;;;;;;;;;;;;;;;;12748576;28;19918;-80
2022/06/19 20:55:12;;;;;;;;;;;;;;;;;;12780946;28;19906;-81
2022/06/19 21:01:14;;;;;;;;;;;;;;;;;;12757947;27;20367;-80
2022/06/19 21:07:15;;;;;;;;;;;;;;;;;;12740551;27;19916;-80
2022/06/19 21:13:17;;;;;;;;;;;;;;;;;;12758028;27;20299;-80
2022/06/19 21:19:18;;;;;;;;;;;;;;;;;;12738325;27;19918;-80
2022/06/19 21:25:20;;;;;;;;;;;;;;;;;;12745759;27;19919;-81
2022/06/19 21:31:21;;;;;;;;;;;;;;;;;;12775469;27;19917;-79
2022/06/19 21:37:23;;;;;;;;;;;;;;;;;;12756425;27;19924;-82
2022/06/19 21:43:24;;;;;;;;;;;;;;;;;;12763585;27;20284;-81
2022/06/19 21:49:26;;;;;;;;;;;;;;;;;;12758850;27;19912;-82
2022/06/19 21:55:27;;;;;;;;;;;;;;;;;;12736342;27;19941;-81
2022/06/19 22:01:29;;;;;;;;;;;;;;;;;;12736019;27;19919;-81
2022/06/19 22:07:31;;;;;;;;;;;;;;;;;;12754050;27;19922;-80
2022/06/19 22:13:32;;;;;;;;;;;;;;;;;;12733842;27;19916;-80
2022/06/19 22:19:34;;;;;;;;;;;;;;;;;;12752534;27;20009;-80
2022/06/19 22:25:36;;;;;;;;;;;;;;;;;;12716954;27;19926;-80
2022/06/19 22:31:37;;;;;;;;;;;;;;;;;;12751899;27;19919;-80
2022/06/19 22:37:39;;;;;;;;;;;;;;;;;;12734077;27;20356;-81
2022/06/19 22:43:40;;;;;;;;;;;;;;;;;;12751840;27;19920;-81
2022/06/19 22:49:42;;;;;;;;;;;;;;;;;;12751371;27;20395;-79
2022/06/19 22:55:43;;;;;;;;;;;;;;;;;;12732615;27;19915;-80
2022/06/19 23:01:44;;;;;;;;;;;;;;;;;;12732605;27;19919;-81
2022/06/19 23:07:47;;;;;;;;;;;;;;;;;;12732980;27;19915;-80
2022/06/19 23:13:49;;;;;;;;;;;;;;;;;;12731678;27;20311;-80
2022/06/19 23:19:50;;;;;;;;;;;;;;;;;;12731330;27;20387;-80
2022/06/19 23:25:52;;;;;;;;;;;;;;;;;;12730763;27;19920;-79
2022/06/19 23:31:53;;;;;;;;;;;;;;;;;;12748900;27;19915;-79
2022/06/19 23:37:55;;;;;;;;;;;;;;;;;;12731273;27;19924;-80
2022/06/19 23:43:56;;;;;;;;;;;;;;;;;;12748961;27;19920;-80
2022/06/19 23:49:58;;;;;;;;;;;;;;;;;;12749426;27;19915;-80
2022/06/19 23:56:00;;;;;;;;;;;;;;;;;;12730261;27;19911;-80
